createdAt,value
2022-10-02T00:02:14.189Z,101441.91
2022-10-02T00:04:50.424Z,101444.63
2022-10-02T00:07:19.237Z,101430.00
2022-10-02T00:09:58.010Z,101462.09
2022-10-02T00:12:29.351Z,101462.28
2022-10-02T00:15:03.513Z,101289.69
2022-10-02T00:17:38.276Z,101454.34
2022-10-02T00:20:12.895Z,101482.28
2022-10-02T00:22:45.340Z,101483.94
2022-10-02T00:25:23.783Z,101482.28
2022-10-02T00:28:12.079Z,101493.38
2022-10-02T00:31:21.328Z,101471.00
2022-10-02T00:34:14.342Z,101502.28
2022-10-02T00:37:20.875Z,101506.47
2022-10-02T00:40:19.436Z,101508.66
2022-10-02T00:42:49.066Z,101501.09
2022-10-02T00:45:18.438Z,101507.81
2022-10-02T00:47:54.592Z,101504.09
2022-10-02T00:50:58.745Z,101509.81
2022-10-02T00:53:31.382Z,101459.00
2022-10-02T00:56:28.969Z,101513.50
2022-10-02T00:59:00.358Z,101511.28
2022-10-02T01:01:46.323Z,101262.88
2022-10-02T01:04:16.610Z,101460.97
2022-10-02T01:06:43.511Z,101505.53
2022-10-02T01:09:13.573Z,101503.34
2022-10-02T01:11:40.300Z,101495.59
2022-10-02T01:14:06.961Z,101494.56
2022-10-02T01:16:36.514Z,101494.38
2022-10-02T01:19:03.537Z,101500.91
2022-10-02T01:21:42.308Z,101464.47
2022-10-02T01:24:25.666Z,101484.09
2022-10-02T01:26:52.243Z,101501.75
2022-10-02T01:29:18.938Z,101518.25
2022-10-02T01:31:45.561Z,101494.63
2022-10-02T01:34:13.379Z,101528.25
2022-10-02T01:36:40.032Z,101531.63
2022-10-02T01:39:07.093Z,101508.81
2022-10-02T01:41:42.985Z,101498.00
2022-10-02T01:44:10.873Z,101522.84
2022-10-02T01:46:43.363Z,101537.34
2022-10-02T01:49:16.047Z,101531.25
2022-10-02T01:52:13.058Z,101547.56
2022-10-02T01:54:59.755Z,101548.06
2022-10-02T01:57:32.303Z,101551.25
2022-10-02T02:00:09.429Z,101530.53
2022-10-02T02:02:57.350Z,101541.63
2022-10-02T02:05:43.819Z,101527.47
2022-10-02T02:08:34.618Z,101535.16
2022-10-02T02:11:14.441Z,101543.00
2022-10-02T02:13:50.081Z,101536.78
2022-10-02T02:16:35.901Z,101515.06
2022-10-02T02:19:13.527Z,101501.66
2022-10-02T02:21:48.950Z,101534.00
2022-10-02T02:24:23.746Z,101539.69
2022-10-02T02:26:54.163Z,101517.75
2022-10-02T02:29:22.950Z,101542.09
2022-10-02T02:31:53.379Z,101539.78
2022-10-02T02:34:33.994Z,101534.34
2022-10-02T02:37:06.002Z,101539.78
2022-10-02T02:40:04.905Z,101459.75
2022-10-02T02:42:35.476Z,101531.72
2022-10-02T02:45:24.732Z,101507.69
2022-10-02T02:48:22.872Z,101531.44
2022-10-02T02:51:00.418Z,101537.78
2022-10-02T02:53:46.837Z,101508.09
2022-10-02T02:56:16.427Z,101536.34
2022-10-02T02:58:49.630Z,101509.66
2022-10-02T03:01:16.440Z,101535.66
2022-10-02T03:03:43.047Z,101544.72
2022-10-02T03:06:15.725Z,101481.28
2022-10-02T03:08:43.884Z,101540.44
2022-10-02T03:11:29.123Z,101547.34
2022-10-02T03:14:14.456Z,101553.19
2022-10-02T03:16:52.970Z,101552.47
2022-10-02T03:19:43.430Z,101346.66
2022-10-02T03:22:29.269Z,101562.91
2022-10-02T03:25:02.377Z,101534.31
2022-10-02T03:27:41.418Z,101540.69
2022-10-02T03:30:22.005Z,101535.97
2022-10-02T03:32:53.474Z,101528.88
2022-10-02T03:35:22.788Z,101579.06
2022-10-02T03:37:52.936Z,101510.09
2022-10-02T03:40:26.704Z,101573.44
2022-10-02T03:42:58.262Z,101568.06
2022-10-02T03:45:49.570Z,101571.03
2022-10-02T03:48:12.525Z,101566.66
2022-10-02T03:50:39.043Z,101575.38
2022-10-02T03:53:17.808Z,101552.38
2022-10-02T03:55:48.634Z,101566.34
2022-10-02T03:58:17.793Z,101574.91
2022-10-02T04:01:11.691Z,101584.63
2022-10-02T04:03:49.328Z,101514.06
2022-10-02T04:06:22.694Z,101589.84
2022-10-02T04:09:03.197Z,101590.88
2022-10-02T04:11:41.373Z,101596.69
2022-10-02T04:14:28.112Z,101597.47
2022-10-02T04:17:03.977Z,101607.06
2022-10-02T04:19:41.035Z,101585.75
2022-10-02T04:22:32.357Z,101624.44
2022-10-02T04:25:33.663Z,101541.09
2022-10-02T04:28:07.880Z,101567.00
2022-10-02T04:30:34.616Z,101616.13
2022-10-02T04:33:18.610Z,101615.56
2022-10-02T04:36:03.837Z,101623.22
2022-10-02T04:38:51.458Z,101629.13
2022-10-02T04:41:40.286Z,101569.22
2022-10-02T04:44:27.890Z,101639.56
2022-10-02T04:47:08.207Z,101612.22
2022-10-02T04:50:02.637Z,101644.41
2022-10-02T04:52:32.133Z,101586.47
2022-10-02T04:55:28.078Z,101618.56
2022-10-02T04:58:13.239Z,101661.28
2022-10-02T05:00:50.004Z,101658.13
2022-10-02T05:03:41.503Z,101650.41
2022-10-02T05:06:13.958Z,101641.22
2022-10-02T05:09:04.944Z,101631.63
2022-10-02T05:11:51.042Z,101649.56
2022-10-02T05:15:04.793Z,101659.19
2022-10-02T05:17:56.189Z,101658.94
2022-10-02T05:20:37.595Z,101649.00
2022-10-02T05:23:24.488Z,101657.94
2022-10-02T05:26:00.866Z,101665.16
2022-10-02T05:28:33.628Z,101676.50
2022-10-02T05:31:12.584Z,101671.59
2022-10-02T05:34:07.248Z,101657.00
2022-10-02T05:36:49.574Z,101655.59
2022-10-02T05:39:28.557Z,101663.38
2022-10-02T05:42:05.809Z,101673.50
2022-10-02T05:44:42.840Z,101655.34
2022-10-02T05:47:18.243Z,101656.72
2022-10-02T05:49:59.751Z,101649.63
2022-10-02T05:52:38.543Z,101604.38
2022-10-02T05:55:08.288Z,101661.03
2022-10-02T05:57:47.419Z,101667.94
2022-10-02T06:00:20.983Z,101637.28
2022-10-02T06:03:11.226Z,101652.78
2022-10-02T06:06:13.195Z,101590.34
2022-10-02T06:09:24.495Z,101661.22
2022-10-02T06:12:02.946Z,101663.69
2022-10-02T06:14:36.779Z,101673.78
2022-10-02T06:17:09.460Z,101623.97
2022-10-02T06:19:46.469Z,101682.47
2022-10-02T06:22:23.515Z,101622.66
2022-10-02T06:25:27.472Z,101697.75
2022-10-02T06:28:01.068Z,101705.28
2022-10-02T06:30:30.318Z,101715.41
2022-10-02T06:33:22.677Z,101648.50
2022-10-02T06:35:58.031Z,101704.22
2022-10-02T06:38:52.575Z,101715.72
2022-10-02T06:41:40.687Z,101712.75
2022-10-02T06:44:17.426Z,101624.16
2022-10-02T06:47:18.167Z,101716.19
2022-10-02T06:50:01.920Z,101712.41
2022-10-02T06:52:38.865Z,101712.66
2022-10-02T06:55:19.643Z,101701.53
2022-10-02T06:58:01.289Z,101716.53
2022-10-02T07:00:28.110Z,101720.16
2022-10-02T07:03:19.266Z,101718.38
2022-10-02T07:06:00.477Z,101720.81
2022-10-02T07:08:49.099Z,101652.44
2022-10-02T07:11:34.918Z,101718.19
2022-10-02T07:14:28.088Z,101597.44
2022-10-02T07:17:00.576Z,101544.41
2022-10-02T07:19:42.666Z,101731.13
2022-10-02T07:22:39.963Z,101718.75
2022-10-02T07:25:42.865Z,101719.69
2022-10-02T07:28:22.937Z,101705.25
2022-10-02T07:31:15.660Z,101630.25
2022-10-02T07:33:52.228Z,101708.09
2022-10-02T07:36:47.576Z,101688.13
2022-10-02T07:39:36.038Z,101715.03
2022-10-02T07:42:15.566Z,101659.47
2022-10-02T07:45:11.468Z,101719.78
2022-10-02T07:48:15.646Z,101720.78
2022-10-02T07:51:06.788Z,101713.06
2022-10-02T07:53:51.496Z,101656.81
2022-10-02T07:56:23.796Z,101620.44
2022-10-02T07:58:57.468Z,101687.97
2022-10-02T08:01:34.382Z,101600.41
2022-10-02T08:04:06.894Z,101574.69
2022-10-02T08:06:35.103Z,101602.16
2022-10-02T08:09:17.686Z,101716.94
2022-10-02T08:11:49.921Z,101733.09
2022-10-02T08:14:23.012Z,101748.13
2022-10-02T08:16:52.541Z,101736.66
2022-10-02T08:19:39.536Z,101696.06
2022-10-02T08:22:15.356Z,101708.72
2022-10-02T08:24:49.150Z,101700.13
2022-10-02T08:27:28.294Z,101674.69
2022-10-02T08:30:06.561Z,101725.19
2022-10-02T08:32:36.409Z,101721.13
2022-10-02T08:35:12.307Z,101703.97
2022-10-02T08:37:57.943Z,101722.97
2022-10-02T08:41:18.870Z,101718.44
2022-10-02T08:44:04.098Z,101711.97
2022-10-02T08:46:40.035Z,101722.09
2022-10-02T08:49:15.920Z,101697.16
2022-10-02T08:52:04.464Z,101650.38
2022-10-02T08:54:50.515Z,101697.38
2022-10-02T08:57:43.456Z,101682.88
2022-10-02T09:00:33.915Z,101631.41
2022-10-02T09:03:27.641Z,101683.16
2022-10-02T09:06:10.234Z,101699.66
2022-10-02T09:09:13.763Z,101689.59
2022-10-02T09:12:14.946Z,101654.91
2022-10-02T09:14:56.787Z,101630.56
2022-10-02T09:17:47.134Z,101685.00
2022-10-02T09:20:35.469Z,101681.88
2022-10-02T09:23:21.118Z,101675.09
2022-10-02T09:25:58.647Z,101672.84
2022-10-02T09:28:43.460Z,101672.47
2022-10-02T09:31:12.995Z,101648.81
2022-10-02T09:34:05.655Z,101665.00
2022-10-02T09:37:00.406Z,101663.56
2022-10-02T09:40:09.006Z,101674.41
2022-10-02T09:42:59.923Z,101611.59
2022-10-02T09:46:00.615Z,101678.72
2022-10-02T09:48:41.025Z,101675.06
2022-10-02T09:51:26.389Z,101634.06
2022-10-02T09:54:32.867Z,101652.81
2022-10-02T09:57:21.261Z,101665.09
2022-10-02T10:00:11.668Z,101663.88
2022-10-02T10:02:57.066Z,101663.78
2022-10-02T10:05:54.465Z,101640.25
2022-10-02T10:08:44.030Z,101633.56
2022-10-02T10:11:16.697Z,101586.69
2022-10-02T10:14:08.208Z,101639.19
2022-10-02T10:16:56.755Z,101645.34
2022-10-02T10:19:45.442Z,101625.19
2022-10-02T10:22:39.023Z,101616.06
2022-10-02T10:25:45.287Z,101622.56
2022-10-02T10:28:38.609Z,101597.94
2022-10-02T10:31:42.790Z,101607.09
2022-10-02T10:34:27.534Z,101597.06
2022-10-02T10:37:21.872Z,101550.84
2022-10-02T10:40:07.329Z,101597.81
2022-10-02T10:43:15.778Z,101594.63
2022-10-02T10:46:06.425Z,101595.97
2022-10-02T10:48:48.547Z,101545.38
2022-10-02T10:51:33.969Z,101592.50
2022-10-02T10:54:05.557Z,101595.25
2022-10-02T10:56:44.800Z,101588.50
2022-10-02T10:59:19.785Z,101590.69
2022-10-02T11:02:23.051Z,101591.44
2022-10-02T11:05:22.319Z,101559.16
2022-10-02T11:08:10.990Z,101578.69
2022-10-02T11:11:14.741Z,101580.00
2022-10-02T11:14:19.627Z,101585.91
2022-10-02T11:17:01.347Z,101573.78
2022-10-02T11:19:36.951Z,101571.34
2022-10-02T11:22:07.430Z,101573.09
2022-10-02T11:24:46.030Z,101565.13
2022-10-02T11:27:36.447Z,101423.88
2022-10-02T11:30:05.930Z,101506.75
2022-10-02T11:32:51.300Z,101566.03
2022-10-02T11:35:30.311Z,101547.50
2022-10-02T11:38:27.759Z,101551.75
2022-10-02T11:41:25.262Z,101545.94
2022-10-02T11:44:20.978Z,101531.34
2022-10-02T11:47:32.115Z,101518.03
2022-10-02T11:50:34.903Z,101531.00
2022-10-02T11:53:32.144Z,101527.88
2022-10-02T11:56:16.884Z,101500.13
2022-10-02T11:59:18.729Z,101521.84
2022-10-02T12:01:56.738Z,101498.66
2022-10-02T12:04:29.686Z,101495.75
2022-10-02T12:07:18.269Z,101518.69
2022-10-02T12:10:18.759Z,101513.06
2022-10-02T12:12:54.649Z,101517.22
2022-10-02T12:15:30.522Z,101515.78
2022-10-02T12:18:06.961Z,101512.44
2022-10-02T12:21:01.337Z,101511.59
2022-10-02T12:24:05.099Z,101353.91
2022-10-02T12:26:59.522Z,101507.84
2022-10-02T12:30:05.158Z,101504.50
2022-10-02T12:32:49.880Z,101470.00
2022-10-02T12:35:19.390Z,101500.09
2022-10-02T12:38:04.267Z,101499.91
2022-10-02T12:41:02.535Z,101494.25
2022-10-02T12:44:05.795Z,101485.47
2022-10-02T12:46:35.322Z,101485.06
2022-10-02T12:49:34.312Z,101445.75
2022-10-02T12:52:13.263Z,101431.56
2022-10-02T12:54:51.801Z,101448.69
2022-10-02T12:57:51.650Z,101473.59
2022-10-02T13:00:31.549Z,101446.38
2022-10-02T13:03:31.486Z,101469.00
2022-10-02T13:06:17.659Z,101474.00
2022-10-02T13:09:29.709Z,101472.75
2022-10-02T13:12:44.292Z,101336.78
2022-10-02T13:15:48.412Z,101456.66
2022-10-02T13:18:38.800Z,101425.91
2022-10-02T13:21:39.604Z,101446.19
2022-10-02T13:25:04.781Z,101294.59
2022-10-02T13:27:52.173Z,101440.78
2022-10-02T13:30:27.213Z,101217.56
2022-10-02T13:33:24.532Z,101207.91
2022-10-02T13:36:17.842Z,101402.75
2022-10-02T13:39:14.073Z,101352.44
2022-10-02T13:41:57.903Z,101211.94
2022-10-02T13:44:37.076Z,101335.56
2022-10-02T13:47:52.701Z,101390.88
2022-10-02T13:50:44.547Z,101389.41
2022-10-02T13:53:48.962Z,101384.41
2022-10-02T13:56:43.538Z,101373.34
2022-10-02T13:59:47.664Z,101206.59
2022-10-02T14:03:09.461Z,101219.53
2022-10-02T14:05:44.847Z,101283.19
2022-10-02T14:08:46.612Z,101351.44
2022-10-02T14:11:35.325Z,101351.84
2022-10-02T14:14:36.831Z,101345.16
2022-10-02T14:17:54.296Z,101352.69
2022-10-02T14:20:34.719Z,101280.50
2022-10-02T14:23:33.014Z,101135.72
2022-10-02T14:26:36.621Z,101234.97
2022-10-02T14:29:28.666Z,101226.91
2022-10-02T14:32:48.105Z,101324.72
2022-10-02T14:35:49.467Z,101221.22
2022-10-02T14:39:11.565Z,101319.72
2022-10-02T14:42:13.284Z,101108.63
2022-10-02T14:44:53.827Z,101307.59
2022-10-02T14:48:08.098Z,101305.09
2022-10-02T14:50:53.955Z,101246.06
2022-10-02T14:54:15.814Z,101097.00
2022-10-02T14:57:19.295Z,101289.25
2022-10-02T15:00:20.766Z,101161.38
2022-10-02T15:02:59.607Z,101146.59
2022-10-02T15:05:47.854Z,101199.34
2022-10-02T15:08:40.593Z,101292.16
2022-10-02T15:11:24.726Z,101184.53
2022-10-02T15:14:12.640Z,101280.47
2022-10-02T15:17:20.573Z,101243.34
2022-10-02T15:19:56.194Z,101064.44
2022-10-02T15:22:31.713Z,101168.47
2022-10-02T15:25:06.901Z,101145.34
2022-10-02T15:28:08.154Z,101269.63
2022-10-02T15:31:02.657Z,101227.72
2022-10-02T15:33:52.588Z,101255.88
2022-10-02T15:36:30.008Z,101217.28
2022-10-02T15:39:19.859Z,101206.66
2022-10-02T15:42:06.253Z,101233.75
2022-10-02T15:44:54.744Z,101251.28
2022-10-02T15:48:20.083Z,101182.88
2022-10-02T15:51:07.962Z,101241.69
2022-10-02T15:54:09.463Z,101235.84
2022-10-02T15:56:51.717Z,101236.28
2022-10-02T16:00:02.140Z,101254.44
2022-10-02T16:03:10.405Z,101250.88
2022-10-02T16:05:50.356Z,101252.75
2022-10-02T16:08:41.925Z,101203.72
2022-10-02T16:11:39.566Z,101255.66
2022-10-02T16:14:14.060Z,101245.00
2022-10-02T16:16:52.792Z,101247.97
2022-10-02T16:19:40.531Z,101246.47
2022-10-02T16:22:28.494Z,101242.47
2022-10-02T16:25:10.670Z,101252.09
2022-10-02T16:28:15.030Z,101251.66
2022-10-02T16:30:50.741Z,101195.34
2022-10-02T16:33:58.420Z,101259.56
2022-10-02T16:36:39.342Z,101259.38
2022-10-02T16:39:37.677Z,101253.91
2022-10-02T16:42:30.504Z,101239.53
2022-10-02T16:45:31.432Z,101248.50
2022-10-02T16:48:19.562Z,101248.31
2022-10-02T16:51:09.945Z,101248.28
2022-10-02T16:54:17.440Z,101241.19
2022-10-02T16:56:54.184Z,101205.25
2022-10-02T16:59:44.877Z,101199.38
2022-10-02T17:02:19.264Z,101191.00
2022-10-02T17:05:13.071Z,101244.28
2022-10-02T17:08:14.963Z,101248.84
2022-10-02T17:11:00.199Z,101237.56
2022-10-02T17:13:36.656Z,101231.09
2022-10-02T17:16:33.250Z,101241.09
2022-10-02T17:19:26.246Z,101228.59
2022-10-02T17:21:59.978Z,101139.25
2022-10-02T17:24:52.940Z,101243.59
2022-10-02T17:27:38.007Z,101186.16
2022-10-02T17:30:27.132Z,101237.88
2022-10-02T17:33:04.318Z,101197.81
2022-10-02T17:35:55.133Z,101227.69
2022-10-02T17:38:24.175Z,101237.66
2022-10-02T17:41:07.150Z,101229.31
2022-10-02T17:43:58.404Z,101234.09
2022-10-02T17:46:43.926Z,101244.69
2022-10-02T17:49:32.194Z,101250.88
2022-10-02T17:52:37.141Z,101225.47
2022-10-02T17:55:41.002Z,101102.22
2022-10-02T17:58:30.293Z,101241.25
2022-10-02T18:01:12.548Z,101170.38
2022-10-02T18:04:09.528Z,101227.25
2022-10-02T18:06:55.808Z,101212.44
2022-10-02T18:09:43.257Z,101231.16
2022-10-02T18:12:37.748Z,101157.75
2022-10-02T18:15:07.094Z,101226.00
2022-10-02T18:18:08.399Z,101222.41
2022-10-02T18:20:57.465Z,101220.38
2022-10-02T18:23:33.329Z,101220.38
2022-10-02T18:26:20.172Z,101219.06
2022-10-02T18:29:11.138Z,101220.72
2022-10-02T18:31:57.721Z,101221.88
2022-10-02T18:34:54.052Z,101147.09
2022-10-02T18:37:28.040Z,101166.31
2022-10-02T18:40:06.843Z,101170.38
2022-10-02T18:43:12.695Z,101012.56
2022-10-02T18:46:17.856Z,101230.16
2022-10-02T18:49:05.005Z,101230.09
2022-10-02T18:51:46.022Z,101227.63
2022-10-02T18:54:29.212Z,101010.91
2022-10-02T18:57:38.543Z,101224.06
2022-10-02T19:00:59.280Z,101031.59
2022-10-02T19:03:54.935Z,101226.72
2022-10-02T19:06:34.334Z,101179.44
2022-10-02T19:09:05.942Z,101068.22
2022-10-02T19:11:38.111Z,101012.69
2022-10-02T19:14:49.945Z,101242.41
2022-10-02T19:17:48.967Z,101141.69
2022-10-02T19:20:53.727Z,101186.06
2022-10-02T19:23:50.269Z,101002.72
2022-10-02T19:26:29.572Z,101042.31
2022-10-02T19:28:59.999Z,101150.06
2022-10-02T19:31:37.303Z,101172.19
2022-10-02T19:34:11.081Z,101216.06
2022-10-02T19:36:46.531Z,101246.94
2022-10-02T19:39:28.687Z,101101.16
2022-10-02T19:42:03.077Z,101249.06
2022-10-02T19:44:32.669Z,101265.19
2022-10-02T19:47:12.972Z,101228.00
2022-10-02T19:49:44.219Z,101080.81
2022-10-02T19:52:46.823Z,101083.97
2022-10-02T19:55:44.103Z,101248.28
2022-10-02T19:58:42.519Z,101141.28
2022-10-02T20:01:33.493Z,101185.00
2022-10-02T20:04:07.751Z,101053.88
2022-10-02T20:06:50.736Z,101044.59
2022-10-02T20:09:26.725Z,101285.13
2022-10-02T20:12:41.659Z,101143.66
2022-10-02T20:15:50.337Z,101295.56
2022-10-02T20:18:30.219Z,101031.09
2022-10-02T20:21:13.867Z,101271.06
2022-10-02T20:23:56.864Z,101206.03
2022-10-02T20:26:38.666Z,101152.84
2022-10-02T20:29:15.641Z,101134.97
2022-10-02T20:31:46.160Z,101244.16
2022-10-02T20:34:29.153Z,101085.78
2022-10-02T20:37:05.189Z,101299.78
2022-10-02T20:39:40.853Z,101296.66
2022-10-02T20:42:22.937Z,101282.84
2022-10-02T20:44:51.097Z,101305.84
2022-10-02T20:47:56.203Z,101311.78
2022-10-02T20:50:41.801Z,101276.19
2022-10-02T20:53:52.557Z,101334.94
2022-10-02T20:56:38.862Z,101340.50
2022-10-02T20:59:33.260Z,101353.53
2022-10-02T21:02:35.274Z,101349.13
2022-10-02T21:05:15.476Z,101344.13
2022-10-02T21:08:11.499Z,101343.09
2022-10-02T21:11:14.722Z,101328.09
2022-10-02T21:14:03.199Z,101356.69
2022-10-02T21:16:42.596Z,101350.34
2022-10-02T21:19:31.211Z,101346.63
2022-10-02T21:22:33.974Z,101286.28
2022-10-02T21:25:36.221Z,101345.16
2022-10-02T21:28:41.306Z,101343.28
2022-10-02T21:31:36.159Z,101347.53
2022-10-02T21:34:45.868Z,101347.25
2022-10-02T21:37:50.387Z,101342.72
2022-10-02T21:40:29.097Z,101345.94
2022-10-02T21:43:32.735Z,101349.19
2022-10-02T21:46:41.586Z,101335.31
2022-10-02T21:49:33.034Z,101340.31
2022-10-02T21:52:05.864Z,101251.66
2022-10-02T21:55:00.322Z,101335.00
2022-10-02T21:57:53.113Z,101309.56
2022-10-02T22:00:29.120Z,101320.00
2022-10-02T22:03:19.864Z,101335.06
2022-10-02T22:06:17.590Z,101331.72
2022-10-02T22:08:59.773Z,101343.88
2022-10-02T22:12:12.648Z,101330.78
2022-10-02T22:14:48.739Z,101299.25
2022-10-02T22:17:34.134Z,101332.97
2022-10-02T22:20:30.776Z,101273.28
2022-10-02T22:23:11.143Z,101332.00
2022-10-02T22:26:42.089Z,101332.22
2022-10-02T22:29:15.302Z,101334.41
2022-10-02T22:32:23.025Z,101315.59
2022-10-02T22:35:08.785Z,101328.19
2022-10-02T22:37:41.290Z,101266.94
2022-10-02T22:40:14.417Z,101302.28
2022-10-02T22:42:47.107Z,101301.28
2022-10-02T22:45:27.505Z,101324.75
2022-10-02T22:48:13.752Z,101295.25
2022-10-02T22:50:49.862Z,101295.56
2022-10-02T22:53:16.823Z,101336.03
2022-10-02T22:55:57.300Z,101321.25
2022-10-02T22:58:37.681Z,101324.44
2022-10-02T23:01:21.872Z,101323.22
2022-10-02T23:03:56.545Z,101287.19
2022-10-02T23:06:44.252Z,101329.16
2022-10-02T23:09:26.021Z,101260.50
2022-10-02T23:12:05.099Z,101328.94
2022-10-02T23:14:59.634Z,101317.88
2022-10-02T23:17:31.413Z,101261.59
2022-10-02T23:20:12.047Z,101230.13
2022-10-02T23:22:52.475Z,101331.13
2022-10-02T23:25:41.676Z,101327.78
2022-10-02T23:28:15.938Z,101314.72
2022-10-02T23:30:50.607Z,101336.56
2022-10-02T23:33:43.701Z,101332.81
2022-10-02T23:36:24.399Z,101312.63
2022-10-02T23:39:17.216Z,101334.47
2022-10-02T23:41:48.446Z,101333.63
2022-10-02T23:44:58.694Z,101319.88
2022-10-02T23:47:48.871Z,101322.44
2022-10-02T23:50:29.248Z,101258.97
2022-10-02T23:53:28.672Z,101296.56
2022-10-02T23:56:03.548Z,101333.22
2022-10-02T23:58:52.179Z,101228.13
